Авиационная погода в аэропорту Балхаш

Регион: 
Погода METAR: 
UAAH 220900Z 07005MPS CAVOK M10/M13 Q1023 NOSIG RMK QFE730/0973
Время наблюдения
2022-01-22T09:00:00Z
Температура C
-10.0
Точка росы
-13.0
Направление ветра
70
Скорость ветра (узлы)
10
Метео видимость
6.21
Облачность
CAVOK
Нижняя граница облачности (футы)
Явления погоды
Условия полета
VFR
Аэропорт подробнее: